Flight Track Log - Related Links

Times and Time Zones

All times are in EST time to prevent confusion due to time zone crossing. See the N2827N flight status page for this flight to view local times or setup timezone preferences in your user account.

Time Position Orientation Groundspeed Altitude Reporting Facility
EST Latitude Longitude Course Direction KTS MPH feet Rate Location/Type
Tue 06:43:05 AM 27.9500 -82.7000 360° North 114 131 1,000  Level Tampa TRACON
Tue 06:43:53 AM 27.9667 -82.7000 360° North 117 135 1,500 667 Climbing Tampa TRACON
Tue 06:44:53 AM 28.0000 -82.7000 360° North 127 146 2,200 650 Climbing Tampa TRACON
Tue 06:45:53 AM 28.0333 -82.7000 360° North 127 146 2,800 600 Climbing Tampa TRACON
Tue 06:46:53 AM 28.0833 -82.7000 360° North 139 160 3,400 600 Climbing Tampa TRACON
Tue 06:47:53 AM 28.1167 -82.7000 360° North 137 158 4,000 600 Climbing Tampa TRACON
Tue 06:48:53 AM 28.1500 -82.7000 360° North 135 155 4,600 619 Climbing Tampa TRACON
Tue 06:49:59 AM 28.2000 -82.7000 360° North 136 157 5,300 600 Climbing Tampa TRACON
Tue 06:50:53 AM 28.2333 -82.7000 360° North 141 162 5,800 421 Climbing Tampa TRACON
Tue 06:51:53 AM 28.2667 -82.7000 360° North 142 163 6,100 150 Climbing Tampa TRACON
Tue 06:52:53 AM 28.3167 -82.7000 360° North 162 186 6,100 333 Level Tampa TRACON
Tue 06:53:59 AM 28.3667 -82.6833 16° North 165 190 6,800 600 Climbing Tampa TRACON
Tue 06:54:53 AM 28.4003 -82.6803 North 161 185 7,300 500 Climbing Jacksonville Center
Tue 06:55:11 AM 28.4106 -82.6803 360° North 160 184 7,400 538 Climbing Jacksonville Center
Tue 06:56:11 AM 28.4544 -82.6753 North 156 180 8,000 347 Climbing Jacksonville Center
Tue 06:57:12 AM 28.5044 -82.6728 North 161 185 8,100  Climbing Jacksonville Center
Tue 06:58:13 AM 28.5525 -82.6706 North 177 204 8,000 -50 Descending Jacksonville Center
Tue 06:59:13 AM 28.6089 -82.6678 North 182 209 8,000  Level Jacksonville Center
Tue 07:00:20 AM 28.6611 -82.6631 North 174 200 8,000 47 Level Jacksonville Center
Tue 07:01:21 AM 28.7111 -82.6631 360° North 181 208 8,100  Climbing Jacksonville Center
Tue 07:02:21 AM 28.7611 -82.6606 North 184 212 8,000 -52 Descending Jacksonville Center
Tue 07:03:16 AM 28.8092 -82.6603 360° North 183 211 8,000  Level Jacksonville Center
Tue 07:04:17 AM 28.8592 -82.6556 North 179 206 8,000  Level Jacksonville Center
Tue 07:05:17 AM 28.9072 -82.6553 360° North 179 206 8,000  Level Jacksonville Center
Tue 07:06:18 AM 28.9614 -82.6506 North 180 207 8,000  Level Jacksonville Center
Tue 07:07:18 AM 29.0117 -82.6481 North 179 206 8,000  Level Jacksonville Center
Tue 07:08:19 AM 29.0617 -82.6431 North 178 205 8,000  Level Jacksonville Center
Tue 07:09:20 AM 29.1097 -82.6453 358° North 177 204 8,000  Level Jacksonville Center
Tue 07:10:20 AM 29.1619 -82.6381 North 178 205 8,000  Level Jacksonville Center
Tue 07:11:11 AM 29.1994 -82.6333 North 178 205 8,000  Level Jacksonville Center
Tue 07:11:21 AM 29.2100 -82.6333 360° North 177 204 8,000  Level Jacksonville Center
Tue 07:12:11 AM 29.2494 -82.6283 North 178 205 8,000  Level Jacksonville Center
Tue 07:12:22 AM 29.2578 -82.6283 360° North 177 204 8,000  Level Jacksonville Center
Tue 07:13:11 AM 29.2975 -82.6306 357° North 178 205 8,000  Level Jacksonville Center
Tue 07:13:22 AM 29.3081 -82.6353 339° North 181 208 8,000  Level Jacksonville Center
Tue 07:14:11 AM 29.3497 -82.6306 North 178 205 8,000  Level Jacksonville Center
Tue 07:14:23 AM 29.3603 -82.6306 360° North 179 206 8,000  Level Jacksonville Center
Tue 07:15:24 AM 29.4125 -82.6303 360° North 178 205 8,000  Level Jacksonville Center
Tue 07:16:11 AM 29.4458 -82.6278 North 178 205 8,000  Level Jacksonville Center
Tue 07:16:24 AM 29.4603 -82.6278 360° North 177 204 8,000  Level Jacksonville Center
Tue 07:17:11 AM 29.4939 -82.6253 North 178 205 8,000  Level Jacksonville Center
Tue 07:18:11 AM 29.5439 -82.6206 North 185 213 8,000 -50 Level Jacksonville Center
Tue 07:19:11 AM 29.5939 -82.6131 North 185 213 7,900  Descending Jacksonville Center
Tue 07:20:11 AM 29.6419 -82.6106 North 180 207 8,000 100 Climbing Jacksonville Center
Tue 07:21:11 AM 29.6900 -82.6081 North 180 207 8,100 50 Climbing Jacksonville Center
Tue 07:22:11 AM 29.7422 -82.6031 North 180 207 8,100  Level Jacksonville Center
Tue 07:23:11 AM 29.7881 -82.5958 North 180 207 8,100  Level Jacksonville Center
Tue 07:24:11 AM 29.8361 -82.5956 360° North 175 201 8,100 -50 Level Jacksonville Center
Tue 07:25:11 AM 29.8800 -82.5931 North 169 194 8,000 -50 Descending Jacksonville Center
Tue 07:26:11 AM 29.9258 -82.5881 North 169 194 8,000  Level Jacksonville Center
Tue 07:27:11 AM 29.9739 -82.5833 North 163 188 8,000  Level Jacksonville Center
Tue 07:28:11 AM 30.0178 -82.5783 North 163 188 8,000  Level Jacksonville Center
Tue 07:29:11 AM 30.0594 -82.5781 360° North 163 188 8,000  Level Jacksonville Center
Tue 07:30:11 AM 30.1053 -82.5733 North 158 182 8,000  Level Jacksonville Center
Tue 07:31:11 AM 30.1514 -82.5731 360° North 158 182 8,000  Level Jacksonville Center
Tue 07:32:11 AM 30.1972 -82.5731 360° North 158 182 8,000  Level Jacksonville Center
Tue 07:33:11 AM 30.2431 -82.5681 North 158 182 8,000  Level Jacksonville Center
Tue 07:34:11 AM 30.2892 -82.5653 North 158 182 8,000  Level Jacksonville Center
Tue 07:35:11 AM 30.3350 -82.5606 North 158 182 8,000  Level Jacksonville Center
Tue 07:36:11 AM 30.3808 -82.5556 North 158 182 8,000  Level Jacksonville Center
Tue 07:37:11 AM 30.4269 -82.5528 North 158 182 8,000  Level Jacksonville Center
Tue 07:38:11 AM 30.4706 -82.5503 North 158 182 8,000  Level Jacksonville Center
Tue 07:39:11 AM 30.5167 -82.5453 North 158 182 8,000  Level Jacksonville Center
Tue 07:40:11 AM 30.5583 -82.5258 22° Northeast 158 182 8,000  Level Jacksonville Center
Tue 07:41:11 AM 30.6042 -82.5089 18° North 164 189 8,000  Level Jacksonville Center
Tue 07:42:11 AM 30.6458 -82.4942 17° North 164 189 8,000  Level Jacksonville Center
Tue 07:43:11 AM 30.6917 -82.4747 20° North 164 189 8,000  Level Jacksonville Center
Tue 07:44:11 AM 30.7375 -82.4550 20° North 164 189 8,000  Level Jacksonville Center
Tue 07:45:11 AM 30.7814 -82.4381 18° North 164 189 8,000  Level Jacksonville Center
Tue 07:46:11 AM 30.8272 -82.4233 15° North 164 189 8,000  Level Jacksonville Center
Tue 07:47:11 AM 30.8731 -82.4036 20° North 164 189 8,000 250 Level Jacksonville Center
Tue 07:48:11 AM 30.9169 -82.3889 16° North 164 189 8,500 450 Climbing Jacksonville Center
Tue 07:49:11 AM 30.9608 -82.3717 19° North 164 189 8,900 300 Climbing Jacksonville Center
Tue 07:50:11 AM 31.0025 -82.3544 20° North 158 182 9,100 100 Climbing Jacksonville Center
Tue 07:51:11 AM 31.0461 -82.3350 21° North 158 182 9,100  Level Jacksonville Center
Tue 07:52:11 AM 31.0919 -82.3200 16° North 169 194 9,100 -50 Level Jacksonville Center
Tue 07:53:11 AM 31.1378 -82.2978 23° Northeast 169 194 9,000 -50 Descending Jacksonville Center
Tue 07:54:11 AM 31.1817 -82.2758 23° Northeast 169 194 9,000  Level Jacksonville Center
Tue 07:55:11 AM 31.2275 -82.2561 20° North 169 194 9,000 50 Level Jacksonville Center
Tue 07:56:11 AM 31.2733 -82.2364 20° North 169 194 9,100  Climbing Jacksonville Center
Tue 07:57:11 AM 31.3211 -82.2164 20° North 169 194 9,000 -50 Descending Jacksonville Center
Tue 07:58:11 AM 31.3669 -82.1967 20° North 169 194 9,000  Level Jacksonville Center
Tue 07:59:11 AM 31.4150 -82.1744 22° Northeast 175 201 9,000  Level Jacksonville Center
Tue 08:00:11 AM 31.4650 -82.1522 21° North 175 201 9,000 50 Level Jacksonville Center
Tue 08:01:11 AM 31.5108 -82.1322 20° North 174 200 9,100 50 Climbing Jacksonville Center
Tue 08:02:11 AM 31.5586 -82.1147 17° North 169 194 9,100  Level Jacksonville Center
Tue 08:03:11 AM 31.6025 -82.0972 19° North 169 194 9,100  Level Jacksonville Center
Tue 08:04:11 AM 31.6483 -82.0822 16° North 169 194 9,100 -50 Level Jacksonville Center
Tue 08:05:11 AM 31.7044 -82.0622 17° North 174 200 9,000 -50 Descending Jacksonville Center
Tue 08:06:11 AM 31.7525 -82.0472 15° North 186 214 9,000  Level Jacksonville Center
Tue 08:07:11 AM 31.8025 -82.0297 17° North 186 214 9,000  Level Jacksonville Center
Tue 08:08:11 AM 31.8483 -82.0144 16° North 184 212 9,000 -50 Level Jacksonville Center
Tue 08:09:11 AM 31.8961 -81.9969 17° North 184 212 8,900 -50 Descending Jacksonville Center
Tue 08:10:11 AM 31.9503 -81.9744 19° North 184 212 8,900  Level Jacksonville Center
Tue 08:11:11 AM 32.0003 -81.9542 19° North 184 212 8,900  Level Jacksonville Center
Tue 08:12:11 AM 32.0503 -81.9367 17° North 189 217 8,900 50 Level Jacksonville Center
Tue 08:13:11 AM 32.0939 -81.9167 21° North 184 212 9,000 50 Climbing Jacksonville Center
Tue 08:14:11 AM 32.1417 -81.8989 17° North 184 212 9,000 50 Level Jacksonville Center
Tue 08:15:11 AM 32.1958 -81.8739 21° North 179 206 9,100  Climbing Jacksonville Center
Tue 08:16:11 AM 32.2458 -81.8561 17° North 184 212 9,000 -50 Descending Jacksonville Center
Tue 08:17:11 AM 32.2894 -81.8358 21° North 184 212 9,000  Level Jacksonville Center
Tue 08:18:11 AM 32.3372 -81.8181 17° North 184 212 9,000  Level Jacksonville Center
Tue 08:19:11 AM 32.3914 -81.7978 18° North 184 212 9,000  Level Jacksonville Center
Tue 08:20:11 AM 32.4392 -81.7775 20° North 184 212 9,000  Level Jacksonville Center
Tue 08:21:11 AM 32.4872 -81.7597 17° North 184 212 9,000  Level Jacksonville Center
Tue 08:22:11 AM 32.5308 -81.7419 19° North 179 206 9,000  Level Jacksonville Center
Tue 08:23:11 AM 32.5786 -81.7192 22° Northeast 179 206 9,000  Level Jacksonville Center
Tue 08:24:11 AM 32.6306 -81.6961 20° North 184 212 9,000  Level Jacksonville Center
Tue 08:25:11 AM 32.6783 -81.6758 20° North 184 212 9,000  Level Jacksonville Center
Tue 08:26:11 AM 32.7303 -81.6528 20° North 184 212 9,000  Level Jacksonville Center
Tue 08:27:11 AM 32.7781 -81.6300 22° Northeast 184 212 9,000 28 Level Jacksonville Center
Tue 08:29:47 AM 32.9008 -81.5789 19° North 190 219 9,100  Climbing Jacksonville Center
Tue 08:30:47 AM 32.9486 -81.5558 22° Northeast 190 219 9,000 -100 Descending Jacksonville Center
Tue 08:31:47 AM 32.9964 -81.5353 20° North 190 219 8,900  Descending Jacksonville Center
Tue 08:32:47 AM 33.0461 -81.5122 21° North 185 213 9,000 50 Climbing Jacksonville Center
Tue 08:33:47 AM 33.0919 -81.4892 23° Northeast 185 213 9,000 50 Level Jacksonville Center
Tue 08:34:47 AM 33.1397 -81.4661 22° Northeast 185 213 9,100 50 Climbing Jacksonville Center
Tue 08:35:47 AM 33.1853 -81.4431 23° Northeast 185 213 9,100  Level Jacksonville Center
Tue 08:36:47 AM 33.2350 -81.4125 27° Northeast 185 213 9,100  Level Jacksonville Center
Tue 08:37:47 AM 33.2828 -81.3819 28° Northeast 185 213 9,100 -50 Level Jacksonville Center
Tue 08:38:47 AM 33.3178 -81.3489 38° Northeast 185 213 9,000 -150 Descending Jacksonville Center
Tue 08:39:47 AM 33.3653 -81.3108 34° Northeast 192 221 8,800 -350 Descending Jacksonville Center
Tue 08:40:47 AM 33.4128 -81.2728 34° Northeast 192 221 8,300 -550 Descending Jacksonville Center
Tue 08:41:47 AM 33.4583 -81.2344 35° Northeast 192 221 7,700 -650 Descending Jacksonville Center
Tue 08:42:47 AM 33.5103 -81.2261 North 186 214 7,000 -600 Descending Jacksonville Center
Tue 08:43:47 AM 33.5606 -81.2375 349° North 178 205 6,500 -600 Descending Jacksonville Center
Tue 08:44:47 AM 33.6108 -81.2492 349° North 178 205 5,800 -700 Descending Jacksonville Center

Login

Don't have an account? Register now (free) for customized features, flight alerts, and more!